sensor_id;sensor_type;location;lat;lon;timestamp;P1;durP1;ratioP1;P2;durP2;ratioP2
1467;SDS011;727;48.892;9.544;2022-08-03T00:01:03;3.93;;;3.63;;
1467;SDS011;727;48.892;9.544;2022-08-03T00:03:30;3.70;;;3.40;;
1467;SDS011;727;48.892;9.544;2022-08-03T00:05:57;3.67;;;3.37;;
1467;SDS011;727;48.892;9.544;2022-08-03T00:08:24;3.60;;;3.10;;
1467;SDS011;727;48.892;9.544;2022-08-03T00:10:50;3.37;;;3.07;;
1467;SDS011;727;48.892;9.544;2022-08-03T00:13:17;3.40;;;2.87;;
1467;SDS011;727;48.892;9.544;2022-08-03T00:15:43;3.87;;;3.20;;
1467;SDS011;727;48.892;9.544;2022-08-03T00:18:11;4.23;;;3.87;;
1467;SDS011;727;48.892;9.544;2022-08-03T00:20:38;3.70;;;3.30;;
1467;SDS011;727;48.892;9.544;2022-08-03T00:23:05;4.10;;;3.80;;
1467;SDS011;727;48.892;9.544;2022-08-03T00:25:32;4.97;;;4.30;;
1467;SDS011;727;48.892;9.544;2022-08-03T00:27:59;3.63;;;3.33;;
1467;SDS011;727;48.892;9.544;2022-08-03T00:30:26;3.97;;;3.67;;
1467;SDS011;727;48.892;9.544;2022-08-03T00:32:52;4.20;;;3.50;;
1467;SDS011;727;48.892;9.544;2022-08-03T00:35:20;3.20;;;3.00;;
1467;SDS011;727;48.892;9.544;2022-08-03T00:37:47;3.23;;;3.03;;
1467;SDS011;727;48.892;9.544;2022-08-03T00:40:14;3.80;;;3.50;;
1467;SDS011;727;48.892;9.544;2022-08-03T00:42:46;3.50;;;3.00;;
1467;SDS011;727;48.892;9.544;2022-08-03T00:45:17;3.67;;;3.47;;
1467;SDS011;727;48.892;9.544;2022-08-03T00:47:45;3.93;;;3.63;;
1467;SDS011;727;48.892;9.544;2022-08-03T00:50:12;3.85;;;3.50;;
1467;SDS011;727;48.892;9.544;2022-08-03T00:52:41;3.40;;;3.10;;
1467;SDS011;727;48.892;9.544;2022-08-03T00:55:08;3.73;;;3.43;;
1467;SDS011;727;48.892;9.544;2022-08-03T00:57:35;5.73;;;3.50;;
1467;SDS011;727;48.892;9.544;2022-08-03T01:00:03;3.93;;;3.63;;
1467;SDS011;727;48.892;9.544;2022-08-03T01:02:31;3.60;;;3.30;;
1467;SDS011;727;48.892;9.544;2022-08-03T01:04:57;3.43;;;3.13;;
1467;SDS011;727;48.892;9.544;2022-08-03T01:07:26;3.83;;;3.50;;
1467;SDS011;727;48.892;9.544;2022-08-03T01:10:04;4.03;;;3.63;;
1467;SDS011;727;48.892;9.544;2022-08-03T01:12:36;3.07;;;2.87;;
1467;SDS011;727;48.892;9.544;2022-08-03T01:15:09;4.73;;;4.33;;
1467;SDS011;727;48.892;9.544;2022-08-03T01:17:43;3.53;;;3.30;;
1467;SDS011;727;48.892;9.544;2022-08-03T01:20:14;4.10;;;3.47;;
1467;SDS011;727;48.892;9.544;2022-08-03T01:25:39;3.10;;;2.90;;
1467;SDS011;727;48.892;9.544;2022-08-03T01:31:15;4.10;;;3.70;;
1467;SDS011;727;48.892;9.544;2022-08-03T01:33:49;3.43;;;3.20;;
1467;SDS011;727;48.892;9.544;2022-08-03T01:36:23;4.43;;;3.80;;
1467;SDS011;727;48.892;9.544;2022-08-03T01:38:55;3.27;;;3.07;;
1467;SDS011;727;48.892;9.544;2022-08-03T01:41:28;4.83;;;3.73;;
1467;SDS011;727;48.892;9.544;2022-08-03T01:43:57;4.15;;;3.75;;
1467;SDS011;727;48.892;9.544;2022-08-03T01:46:27;4.43;;;4.03;;
1467;SDS011;727;48.892;9.544;2022-08-03T01:48:56;9.00;;;4.03;;
1467;SDS011;727;48.892;9.544;2022-08-03T01:51:23;4.43;;;4.03;;
1467;SDS011;727;48.892;9.544;2022-08-03T01:53:50;3.53;;;3.27;;
1467;SDS011;727;48.892;9.544;2022-08-03T01:56:19;4.07;;;3.40;;
1467;SDS011;727;48.892;9.544;2022-08-03T01:58:48;3.77;;;3.47;;
1467;SDS011;727;48.892;9.544;2022-08-03T02:01:16;3.43;;;3.13;;
1467;SDS011;727;48.892;9.544;2022-08-03T02:03:45;4.67;;;4.27;;
1467;SDS011;727;48.892;9.544;2022-08-03T02:06:13;4.13;;;3.83;;
1467;SDS011;727;48.892;9.544;2022-08-03T02:08:42;4.47;;;3.53;;
1467;SDS011;727;48.892;9.544;2022-08-03T02:11:11;3.87;;;3.47;;
1467;SDS011;727;48.892;9.544;2022-08-03T02:13:38;3.23;;;2.93;;
1467;SDS011;727;48.892;9.544;2022-08-03T02:16:06;3.63;;;3.43;;
1467;SDS011;727;48.892;9.544;2022-08-03T02:18:33;4.60;;;4.20;;
1467;SDS011;727;48.892;9.544;2022-08-03T02:21:04;4.27;;;3.97;;
1467;SDS011;727;48.892;9.544;2022-08-03T02:23:34;3.17;;;2.97;;
1467;SDS011;727;48.892;9.544;2022-08-03T02:26:01;5.13;;;4.30;;
1467;SDS011;727;48.892;9.544;2022-08-03T02:28:31;5.80;;;3.60;;
1467;SDS011;727;48.892;9.544;2022-08-03T02:31:01;3.70;;;3.40;;
1467;SDS011;727;48.892;9.544;2022-08-03T02:33:31;3.83;;;3.53;;
1467;SDS011;727;48.892;9.544;2022-08-03T02:36:01;4.00;;;3.70;;
1467;SDS011;727;48.892;9.544;2022-08-03T02:38:32;3.50;;;3.20;;
1467;SDS011;727;48.892;9.544;2022-08-03T02:41:02;4.40;;;4.00;;
1467;SDS011;727;48.892;9.544;2022-08-03T02:43:33;6.73;;;4.00;;
1467;SDS011;727;48.892;9.544;2022-08-03T02:46:00;3.73;;;3.43;;
1467;SDS011;727;48.892;9.544;2022-08-03T02:48:27;5.20;;;4.00;;
1467;SDS011;727;48.892;9.544;2022-08-03T02:50:58;4.03;;;3.70;;
1467;SDS011;727;48.892;9.544;2022-08-03T02:53:25;3.10;;;2.90;;
1467;SDS011;727;48.892;9.544;2022-08-03T02:55:55;3.97;;;3.57;;
1467;SDS011;727;48.892;9.544;2022-08-03T02:58:22;5.13;;;3.40;;
1467;SDS011;727;48.892;9.544;2022-08-03T03:00:50;4.07;;;3.77;;
1467;SDS011;727;48.892;9.544;2022-08-03T03:03:18;4.20;;;3.80;;
1467;SDS011;727;48.892;9.544;2022-08-03T03:05:47;3.83;;;3.53;;
1467;SDS011;727;48.892;9.544;2022-08-03T03:08:16;4.07;;;3.77;;
1467;SDS011;727;48.892;9.544;2022-08-03T03:10:45;3.80;;;3.33;;
1467;SDS011;727;48.892;9.544;2022-08-03T03:13:14;8.17;;;4.40;;
1467;SDS011;727;48.892;9.544;2022-08-03T03:15:42;6.43;;;3.70;;
1467;SDS011;727;48.892;9.544;2022-08-03T03:18:10;6.00;;;4.50;;
1467;SDS011;727;48.892;9.544;2022-08-03T03:20:39;4.83;;;4.30;;
1467;SDS011;727;48.892;9.544;2022-08-03T03:23:08;4.10;;;3.80;;
1467;SDS011;727;48.892;9.544;2022-08-03T03:25:35;4.47;;;4.10;;
1467;SDS011;727;48.892;9.544;2022-08-03T03:28:03;4.27;;;3.97;;
1467;SDS011;727;48.892;9.544;2022-08-03T03:30:33;4.47;;;4.17;;
1467;SDS011;727;48.892;9.544;2022-08-03T03:33:00;4.10;;;3.70;;
1467;SDS011;727;48.892;9.544;2022-08-03T03:35:27;4.23;;;3.93;;
1467;SDS011;727;48.892;9.544;2022-08-03T03:37:54;4.50;;;4.10;;
1467;SDS011;727;48.892;9.544;2022-08-03T03:40:21;4.70;;;4.30;;
1467;SDS011;727;48.892;9.544;2022-08-03T03:42:48;3.90;;;3.60;;
1467;SDS011;727;48.892;9.544;2022-08-03T03:45:15;9.10;;;4.60;;
1467;SDS011;727;48.892;9.544;2022-08-03T03:47:45;4.00;;;3.30;;
1467;SDS011;727;48.892;9.544;2022-08-03T03:50:12;7.60;;;5.07;;
1467;SDS011;727;48.892;9.544;2022-08-03T03:52:42;4.33;;;4.03;;
1467;SDS011;727;48.892;9.544;2022-08-03T03:55:09;4.10;;;3.70;;
1467;SDS011;727;48.892;9.544;2022-08-03T03:57:41;4.63;;;4.23;;
1467;SDS011;727;48.892;9.544;2022-08-03T04:00:08;3.93;;;3.50;;
1467;SDS011;727;48.892;9.544;2022-08-03T04:02:35;4.77;;;4.37;;
1467;SDS011;727;48.892;9.544;2022-08-03T04:05:04;4.50;;;4.00;;
1467;SDS011;727;48.892;9.544;2022-08-03T04:07:50;4.83;;;4.37;;
1467;SDS011;727;48.892;9.544;2022-08-03T04:10:40;4.53;;;4.13;;
1467;SDS011;727;48.892;9.544;2022-08-03T04:13:23;5.00;;;3.70;;
1467;SDS011;727;48.892;9.544;2022-08-03T04:15:52;4.83;;;4.27;;
1467;SDS011;727;48.892;9.544;2022-08-03T04:18:22;5.23;;;3.90;;
1467;SDS011;727;48.892;9.544;2022-08-03T04:20:52;4.90;;;4.10;;
1467;SDS011;727;48.892;9.544;2022-08-03T04:23:21;5.10;;;4.17;;
1467;SDS011;727;48.892;9.544;2022-08-03T04:25:52;4.10;;;3.80;;
1467;SDS011;727;48.892;9.544;2022-08-03T04:28:21;3.70;;;3.40;;
1467;SDS011;727;48.892;9.544;2022-08-03T04:30:49;4.10;;;3.80;;
1467;SDS011;727;48.892;9.544;2022-08-03T04:33:18;4.03;;;3.63;;
1467;SDS011;727;48.892;9.544;2022-08-03T04:35:45;3.90;;;3.60;;
1467;SDS011;727;48.892;9.544;2022-08-03T04:38:15;3.73;;;3.43;;
1467;SDS011;727;48.892;9.544;2022-08-03T04:40:44;3.40;;;3.13;;
1467;SDS011;727;48.892;9.544;2022-08-03T04:43:13;4.03;;;3.73;;
1467;SDS011;727;48.892;9.544;2022-08-03T04:45:43;4.50;;;3.80;;
1467;SDS011;727;48.892;9.544;2022-08-03T04:48:12;3.53;;;3.33;;
1467;SDS011;727;48.892;9.544;2022-08-03T04:50:40;16.73;;;4.20;;
1467;SDS011;727;48.892;9.544;2022-08-03T04:53:07;3.80;;;2.73;;
1467;SDS011;727;48.892;9.544;2022-08-03T04:55:35;4.10;;;2.83;;
1467;SDS011;727;48.892;9.544;2022-08-03T04:58:02;3.40;;;3.10;;
1467;SDS011;727;48.892;9.544;2022-08-03T05:00:30;3.00;;;2.80;;
1467;SDS011;727;48.892;9.544;2022-08-03T05:02:57;3.80;;;3.50;;
1467;SDS011;727;48.892;9.544;2022-08-03T05:05:23;6.33;;;3.70;;
1467;SDS011;727;48.892;9.544;2022-08-03T05:07:50;3.60;;;3.30;;
1467;SDS011;727;48.892;9.544;2022-08-03T05:10:17;5.20;;;3.50;;
1467;SDS011;727;48.892;9.544;2022-08-03T05:12:46;4.00;;;3.20;;
1467;SDS011;727;48.892;9.544;2022-08-03T05:15:15;3.60;;;3.30;;
1467;SDS011;727;48.892;9.544;2022-08-03T05:17:42;3.30;;;3.10;;
1467;SDS011;727;48.892;9.544;2022-08-03T05:20:09;4.07;;;3.50;;
1467;SDS011;727;48.892;9.544;2022-08-03T05:22:36;3.60;;;2.90;;
1467;SDS011;727;48.892;9.544;2022-08-03T05:25:03;4.47;;;2.80;;
1467;SDS011;727;48.892;9.544;2022-08-03T05:27:30;4.17;;;3.60;;
1467;SDS011;727;48.892;9.544;2022-08-03T05:29:58;3.20;;;2.90;;
1467;SDS011;727;48.892;9.544;2022-08-03T05:32:25;3.20;;;3.00;;
1467;SDS011;727;48.892;9.544;2022-08-03T05:34:52;3.50;;;3.20;;
1467;SDS011;727;48.892;9.544;2022-08-03T05:37:19;3.70;;;3.00;;
1467;SDS011;727;48.892;9.544;2022-08-03T05:39:45;3.27;;;2.60;;
1467;SDS011;727;48.892;9.544;2022-08-03T05:42:13;3.17;;;2.97;;
1467;SDS011;727;48.892;9.544;2022-08-03T05:44:40;4.80;;;3.73;;
1467;SDS011;727;48.892;9.544;2022-08-03T05:47:08;11.20;;;3.57;;
1467;SDS011;727;48.892;9.544;2022-08-03T05:49:35;5.10;;;2.97;;
1467;SDS011;727;48.892;9.544;2022-08-03T05:52:02;3.80;;;3.50;;
1467;SDS011;727;48.892;9.544;2022-08-03T05:54:29;3.40;;;3.10;;
1467;SDS011;727;48.892;9.544;2022-08-03T05:56:56;6.93;;;4.63;;
1467;SDS011;727;48.892;9.544;2022-08-03T05:59:22;3.50;;;3.20;;
1467;SDS011;727;48.892;9.544;2022-08-03T06:01:49;4.90;;;3.00;;
1467;SDS011;727;48.892;9.544;2022-08-03T06:04:17;3.43;;;3.23;;
1467;SDS011;727;48.892;9.544;2022-08-03T06:06:44;3.47;;;3.00;;
1467;SDS011;727;48.892;9.544;2022-08-03T06:09:11;4.27;;;3.20;;
1467;SDS011;727;48.892;9.544;2022-08-03T06:11:39;3.37;;;3.07;;
1467;SDS011;727;48.892;9.544;2022-08-03T06:14:06;3.60;;;3.30;;
1467;SDS011;727;48.892;9.544;2022-08-03T06:16:33;5.00;;;3.50;;
1467;SDS011;727;48.892;9.544;2022-08-03T06:18:59;2.73;;;2.53;;
1467;SDS011;727;48.892;9.544;2022-08-03T06:21:27;3.33;;;3.07;;
1467;SDS011;727;48.892;9.544;2022-08-03T06:23:54;3.67;;;3.37;;
1467;SDS011;727;48.892;9.544;2022-08-03T06:26:24;4.27;;;3.97;;
1467;SDS011;727;48.892;9.544;2022-08-03T06:28:52;3.67;;;3.37;;
1467;SDS011;727;48.892;9.544;2022-08-03T06:31:19;3.13;;;2.80;;
1467;SDS011;727;48.892;9.544;2022-08-03T06:33:47;5.10;;;3.63;;
1467;SDS011;727;48.892;9.544;2022-08-03T06:36:14;3.67;;;3.47;;
1467;SDS011;727;48.892;9.544;2022-08-03T06:38:42;3.67;;;3.43;;
1467;SDS011;727;48.892;9.544;2022-08-03T06:41:09;3.00;;;2.80;;
1467;SDS011;727;48.892;9.544;2022-08-03T06:43:35;2.97;;;2.77;;
1467;SDS011;727;48.892;9.544;2022-08-03T06:46:02;3.37;;;3.07;;
1467;SDS011;727;48.892;9.544;2022-08-03T06:48:29;3.47;;;3.17;;
1467;SDS011;727;48.892;9.544;2022-08-03T06:50:56;3.43;;;3.23;;
1467;SDS011;727;48.892;9.544;2022-08-03T06:53:23;5.93;;;3.33;;
1467;SDS011;727;48.892;9.544;2022-08-03T06:55:51;18.93;;;14.40;;
1467;SDS011;727;48.892;9.544;2022-08-03T06:58:18;4.10;;;3.80;;
1467;SDS011;727;48.892;9.544;2022-08-03T07:00:44;3.40;;;2.70;;
1467;SDS011;727;48.892;9.544;2022-08-03T07:03:11;3.67;;;3.43;;
1467;SDS011;727;48.892;9.544;2022-08-03T07:05:39;3.07;;;2.87;;
1467;SDS011;727;48.892;9.544;2022-08-03T07:08:06;3.20;;;3.00;;
1467;SDS011;727;48.892;9.544;2022-08-03T07:10:33;4.30;;;3.50;;
1467;SDS011;727;48.892;9.544;2022-08-03T07:13:01;3.50;;;3.00;;
1467;SDS011;727;48.892;9.544;2022-08-03T07:15:27;4.07;;;3.67;;
1467;SDS011;727;48.892;9.544;2022-08-03T07:17:54;5.90;;;3.57;;
1467;SDS011;727;48.892;9.544;2022-08-03T07:20:21;5.90;;;3.80;;
1467;SDS011;727;48.892;9.544;2022-08-03T07:22:48;4.90;;;2.80;;
1467;SDS011;727;48.892;9.544;2022-08-03T07:25:15;4.83;;;3.43;;
1467;SDS011;727;48.892;9.544;2022-08-03T07:27:42;3.77;;;3.43;;
1467;SDS011;727;48.892;9.544;2022-08-03T07:30:10;3.47;;;3.17;;
1467;SDS011;727;48.892;9.544;2022-08-03T07:32:38;2.73;;;2.53;;
1467;SDS011;727;48.892;9.544;2022-08-03T07:35:06;2.40;;;2.23;;
1467;SDS011;727;48.892;9.544;2022-08-03T07:37:34;3.03;;;2.87;;
1467;SDS011;727;48.892;9.544;2022-08-03T07:40:02;2.63;;;2.43;;
1467;SDS011;727;48.892;9.544;2022-08-03T07:42:30;2.57;;;2.37;;
1467;SDS011;727;48.892;9.544;2022-08-03T07:44:57;3.30;;;2.80;;
1467;SDS011;727;48.892;9.544;2022-08-03T07:47:26;2.90;;;2.70;;
1467;SDS011;727;48.892;9.544;2022-08-03T07:49:54;2.93;;;2.73;;
1467;SDS011;727;48.892;9.544;2022-08-03T07:52:20;3.10;;;2.80;;
1467;SDS011;727;48.892;9.544;2022-08-03T07:55:05;3.00;;;2.80;;
1467;SDS011;727;48.892;9.544;2022-08-03T07:57:32;2.83;;;2.60;;
1467;SDS011;727;48.892;9.544;2022-08-03T07:59:59;9.23;;;3.10;;
1467;SDS011;727;48.892;9.544;2022-08-03T08:02:29;3.40;;;2.50;;
1467;SDS011;727;48.892;9.544;2022-08-03T08:04:55;4.33;;;2.90;;
1467;SDS011;727;48.892;9.544;2022-08-03T08:07:22;3.00;;;2.47;;
1467;SDS011;727;48.892;9.544;2022-08-03T08:09:50;3.20;;;2.90;;
1467;SDS011;727;48.892;9.544;2022-08-03T08:12:16;3.17;;;2.87;;
1467;SDS011;727;48.892;9.544;2022-08-03T08:14:43;2.60;;;2.40;;
1467;SDS011;727;48.892;9.544;2022-08-03T08:17:10;3.07;;;2.47;;
1467;SDS011;727;48.892;9.544;2022-08-03T08:19:38;3.20;;;2.43;;
1467;SDS011;727;48.892;9.544;2022-08-03T08:22:05;3.27;;;3.07;;
1467;SDS011;727;48.892;9.544;2022-08-03T08:24:31;2.17;;;2.07;;
1467;SDS011;727;48.892;9.544;2022-08-03T08:26:58;5.70;;;2.20;;
1467;SDS011;727;48.892;9.544;2022-08-03T08:29:26;2.23;;;2.13;;
1467;SDS011;727;48.892;9.544;2022-08-03T08:31:52;2.53;;;2.33;;
1467;SDS011;727;48.892;9.544;2022-08-03T08:34:19;10.23;;;2.73;;
1467;SDS011;727;48.892;9.544;2022-08-03T08:36:47;3.07;;;1.63;;
1467;SDS011;727;48.892;9.544;2022-08-03T08:39:13;1.63;;;1.53;;
1467;SDS011;727;48.892;9.544;2022-08-03T08:41:40;2.10;;;1.90;;
1467;SDS011;727;48.892;9.544;2022-08-03T08:44:07;3.87;;;2.30;;
1467;SDS011;727;48.892;9.544;2022-08-03T08:46:34;3.57;;;1.70;;
1467;SDS011;727;48.892;9.544;2022-08-03T08:49:04;1.70;;;1.60;;
1467;SDS011;727;48.892;9.544;2022-08-03T08:51:34;2.00;;;1.90;;
1467;SDS011;727;48.892;9.544;2022-08-03T08:54:05;2.00;;;1.90;;
1467;SDS011;727;48.892;9.544;2022-08-03T08:56:33;1.97;;;1.77;;
1467;SDS011;727;48.892;9.544;2022-08-03T08:59:02;3.03;;;1.70;;
1467;SDS011;727;48.892;9.544;2022-08-03T09:01:29;2.70;;;1.90;;
1467;SDS011;727;48.892;9.544;2022-08-03T09:03:56;3.27;;;1.90;;
1467;SDS011;727;48.892;9.544;2022-08-03T09:06:22;2.57;;;1.90;;
1467;SDS011;727;48.892;9.544;2022-08-03T09:08:49;2.20;;;1.83;;
1467;SDS011;727;48.892;9.544;2022-08-03T09:11:20;1.60;;;1.50;;
1467;SDS011;727;48.892;9.544;2022-08-03T09:13:48;1.73;;;1.63;;
1467;SDS011;727;48.892;9.544;2022-08-03T09:16:15;4.93;;;1.70;;
1467;SDS011;727;48.892;9.544;2022-08-03T09:18:44;2.90;;;2.13;;
1467;SDS011;727;48.892;9.544;2022-08-03T09:21:14;2.17;;;1.80;;
1467;SDS011;727;48.892;9.544;2022-08-03T09:23:44;3.03;;;2.53;;
1467;SDS011;727;48.892;9.544;2022-08-03T09:26:11;3.80;;;1.80;;
1467;SDS011;727;48.892;9.544;2022-08-03T09:28:46;3.13;;;1.80;;
1467;SDS011;727;48.892;9.544;2022-08-03T09:31:19;2.43;;;1.83;;
1467;SDS011;727;48.892;9.544;2022-08-03T09:33:53;2.00;;;1.87;;
1467;SDS011;727;48.892;9.544;2022-08-03T09:36:33;2.87;;;1.90;;
1467;SDS011;727;48.892;9.544;2022-08-03T09:39:04;2.60;;;1.80;;
1467;SDS011;727;48.892;9.544;2022-08-03T09:41:34;2.10;;;1.90;;
1467;SDS011;727;48.892;9.544;2022-08-03T09:44:03;3.33;;;1.90;;
1467;SDS011;727;48.892;9.544;2022-08-03T09:46:30;2.13;;;1.70;;
1467;SDS011;727;48.892;9.544;2022-08-03T09:49:10;1.97;;;1.83;;
1467;SDS011;727;48.892;9.544;2022-08-03T09:51:37;1.93;;;1.63;;
1467;SDS011;727;48.892;9.544;2022-08-03T09:54:04;2.47;;;1.87;;
1467;SDS011;727;48.892;9.544;2022-08-03T09:56:41;2.10;;;2.00;;
1467;SDS011;727;48.892;9.544;2022-08-03T09:59:10;2.10;;;1.60;;
1467;SDS011;727;48.892;9.544;2022-08-03T10:01:39;1.80;;;1.70;;
1467;SDS011;727;48.892;9.544;2022-08-03T10:04:10;1.90;;;1.80;;
1467;SDS011;727;48.892;9.544;2022-08-03T10:06:38;2.07;;;1.97;;
1467;SDS011;727;48.892;9.544;2022-08-03T10:09:06;2.47;;;1.97;;
1467;SDS011;727;48.892;9.544;2022-08-03T10:11:35;2.17;;;1.97;;
1467;SDS011;727;48.892;9.544;2022-08-03T10:14:03;3.00;;;2.10;;
1467;SDS011;727;48.892;9.544;2022-08-03T10:16:33;2.23;;;2.13;;
1467;SDS011;727;48.892;9.544;2022-08-03T10:19:01;1.87;;;1.73;;
1467;SDS011;727;48.892;9.544;2022-08-03T10:21:30;3.70;;;2.00;;
1467;SDS011;727;48.892;9.544;2022-08-03T10:24:00;2.33;;;2.13;;
1467;SDS011;727;48.892;9.544;2022-08-03T10:26:29;2.70;;;1.83;;
1467;SDS011;727;48.892;9.544;2022-08-03T10:28:58;1.93;;;1.83;;
1467;SDS011;727;48.892;9.544;2022-08-03T10:31:27;4.37;;;1.90;;
1467;SDS011;727;48.892;9.544;2022-08-03T10:34:00;2.03;;;1.93;;
1467;SDS011;727;48.892;9.544;2022-08-03T10:36:30;5.20;;;2.20;;
1467;SDS011;727;48.892;9.544;2022-08-03T10:38:58;2.50;;;1.80;;
1467;SDS011;727;48.892;9.544;2022-08-03T10:41:30;1.67;;;1.57;;
1467;SDS011;727;48.892;9.544;2022-08-03T10:44:02;2.53;;;2.30;;
1467;SDS011;727;48.892;9.544;2022-08-03T10:46:31;3.70;;;1.93;;
1467;SDS011;727;48.892;9.544;2022-08-03T10:49:01;4.30;;;2.07;;
1467;SDS011;727;48.892;9.544;2022-08-03T10:51:28;2.10;;;1.90;;
1467;SDS011;727;48.892;9.544;2022-08-03T10:53:56;2.40;;;1.70;;
1467;SDS011;727;48.892;9.544;2022-08-03T10:56:38;1.87;;;1.77;;
1467;SDS011;727;48.892;9.544;2022-08-03T11:02:23;1.77;;;1.67;;
1467;SDS011;727;48.892;9.544;2022-08-03T11:05:34;2.03;;;1.93;;
1467;SDS011;727;48.892;9.544;2022-08-03T11:08:19;1.93;;;1.83;;
1467;SDS011;727;48.892;9.544;2022-08-03T11:10:48;1.90;;;1.80;;
1467;SDS011;727;48.892;9.544;2022-08-03T11:13:17;2.50;;;1.60;;
1467;SDS011;727;48.892;9.544;2022-08-03T11:15:45;3.03;;;1.90;;
1467;SDS011;727;48.892;9.544;2022-08-03T11:18:13;1.77;;;1.67;;
1467;SDS011;727;48.892;9.544;2022-08-03T11:20:46;1.70;;;1.60;;
1467;SDS011;727;48.892;9.544;2022-08-03T11:23:15;2.00;;;1.60;;
1467;SDS011;727;48.892;9.544;2022-08-03T11:28:41;2.13;;;1.73;;
1467;SDS011;727;48.892;9.544;2022-08-03T11:34:22;3.80;;;1.90;;
1467;SDS011;727;48.892;9.544;2022-08-03T11:39:49;2.80;;;1.67;;
1467;SDS011;727;48.892;9.544;2022-08-03T11:45:05;3.17;;;1.77;;
1467;SDS011;727;48.892;9.544;2022-08-03T11:47:35;2.60;;;1.83;;
1467;SDS011;727;48.892;9.544;2022-08-03T11:50:04;3.37;;;1.73;;
1467;SDS011;727;48.892;9.544;2022-08-03T11:52:37;2.13;;;1.93;;
1467;SDS011;727;48.892;9.544;2022-08-03T11:55:13;1.73;;;1.63;;
1467;SDS011;727;48.892;9.544;2022-08-03T11:57:42;1.97;;;1.87;;
1467;SDS011;727;48.892;9.544;2022-08-03T12:00:24;1.93;;;1.83;;
1467;SDS011;727;48.892;9.544;2022-08-03T12:03:00;2.30;;;1.30;;
1467;SDS011;727;48.892;9.544;2022-08-03T12:05:33;3.17;;;2.20;;
1467;SDS011;727;48.892;9.544;2022-08-03T12:08:12;1.90;;;1.80;;
1467;SDS011;727;48.892;9.544;2022-08-03T12:10:44;2.40;;;2.20;;
1467;SDS011;727;48.892;9.544;2022-08-03T12:13:13;2.00;;;1.80;;
1467;SDS011;727;48.892;9.544;2022-08-03T12:15:39;1.77;;;1.67;;
1467;SDS011;727;48.892;9.544;2022-08-03T12:18:13;2.33;;;1.50;;
1467;SDS011;727;48.892;9.544;2022-08-03T12:20:42;2.10;;;2.00;;
1467;SDS011;727;48.892;9.544;2022-08-03T12:23:09;1.70;;;1.60;;
1467;SDS011;727;48.892;9.544;2022-08-03T12:25:38;2.57;;;1.70;;
1467;SDS011;727;48.892;9.544;2022-08-03T12:28:08;1.70;;;1.60;;
1467;SDS011;727;48.892;9.544;2022-08-03T12:30:43;2.17;;;2.03;;
1467;SDS011;727;48.892;9.544;2022-08-03T12:33:18;1.90;;;1.80;;
1467;SDS011;727;48.892;9.544;2022-08-03T12:35:46;2.43;;;1.63;;
1467;SDS011;727;48.892;9.544;2022-08-03T12:38:20;1.90;;;1.80;;
1467;SDS011;727;48.892;9.544;2022-08-03T12:40:57;2.27;;;2.07;;
1467;SDS011;727;48.892;9.544;2022-08-03T12:43:28;1.50;;;1.40;;
1467;SDS011;727;48.892;9.544;2022-08-03T12:46:07;1.30;;;1.30;;
1467;SDS011;727;48.892;9.544;2022-08-03T12:48:56;1.60;;;1.50;;
1467;SDS011;727;48.892;9.544;2022-08-03T12:51:31;2.03;;;1.90;;
1467;SDS011;727;48.892;9.544;2022-08-03T12:54:01;2.00;;;1.80;;
1467;SDS011;727;48.892;9.544;2022-08-03T12:56:28;1.60;;;1.50;;
1467;SDS011;727;48.892;9.544;2022-08-03T12:58:55;1.50;;;1.40;;
1467;SDS011;727;48.892;9.544;2022-08-03T13:01:22;1.80;;;1.70;;
1467;SDS011;727;48.892;9.544;2022-08-03T13:03:51;2.13;;;1.67;;
1467;SDS011;727;48.892;9.544;2022-08-03T13:06:19;1.70;;;1.33;;
1467;SDS011;727;48.892;9.544;2022-08-03T13:08:47;1.60;;;1.50;;
1467;SDS011;727;48.892;9.544;2022-08-03T13:11:23;1.70;;;1.60;;
1467;SDS011;727;48.892;9.544;2022-08-03T13:13:51;1.80;;;1.70;;
1467;SDS011;727;48.892;9.544;2022-08-03T13:16:20;2.87;;;2.17;;
1467;SDS011;727;48.892;9.544;2022-08-03T13:18:47;2.77;;;1.70;;
1467;SDS011;727;48.892;9.544;2022-08-03T13:21:15;3.00;;;2.20;;
1467;SDS011;727;48.892;9.544;2022-08-03T13:23:42;2.30;;;2.10;;
1467;SDS011;727;48.892;9.544;2022-08-03T13:26:10;1.70;;;1.60;;
1467;SDS011;727;48.892;9.544;2022-08-03T13:28:38;1.73;;;1.63;;
1467;SDS011;727;48.892;9.544;2022-08-03T13:31:05;1.60;;;1.50;;
1467;SDS011;727;48.892;9.544;2022-08-03T13:33:32;2.07;;;1.97;;
1467;SDS011;727;48.892;9.544;2022-08-03T13:35:59;3.00;;;1.80;;
1467;SDS011;727;48.892;9.544;2022-08-03T13:38:26;1.70;;;1.60;;
1467;SDS011;727;48.892;9.544;2022-08-03T13:40:52;1.80;;;1.70;;
1467;SDS011;727;48.892;9.544;2022-08-03T13:43:19;4.43;;;4.23;;
1467;SDS011;727;48.892;9.544;2022-08-03T13:45:47;2.07;;;1.80;;
1467;SDS011;727;48.892;9.544;2022-08-03T13:48:14;2.00;;;1.90;;
1467;SDS011;727;48.892;9.544;2022-08-03T13:50:40;1.63;;;1.33;;
1467;SDS011;727;48.892;9.544;2022-08-03T13:53:07;2.37;;;2.17;;
1467;SDS011;727;48.892;9.544;2022-08-03T13:55:34;1.87;;;1.77;;
1467;SDS011;727;48.892;9.544;2022-08-03T13:58:00;4.03;;;1.93;;
1467;SDS011;727;48.892;9.544;2022-08-03T14:00:28;1.50;;;1.40;;
1467;SDS011;727;48.892;9.544;2022-08-03T14:02:56;3.43;;;2.03;;
1467;SDS011;727;48.892;9.544;2022-08-03T14:05:24;1.70;;;1.60;;
1467;SDS011;727;48.892;9.544;2022-08-03T14:07:51;2.07;;;1.97;;
1467;SDS011;727;48.892;9.544;2022-08-03T14:10:17;1.90;;;1.47;;
1467;SDS011;727;48.892;9.544;2022-08-03T14:12:44;3.43;;;1.70;;
1467;SDS011;727;48.892;9.544;2022-08-03T14:15:13;1.90;;;1.80;;
1467;SDS011;727;48.892;9.544;2022-08-03T14:17:39;2.10;;;2.00;;
1467;SDS011;727;48.892;9.544;2022-08-03T14:20:08;1.73;;;1.63;;
1467;SDS011;727;48.892;9.544;2022-08-03T14:22:36;2.00;;;1.90;;
1467;SDS011;727;48.892;9.544;2022-08-03T14:25:03;1.77;;;1.67;;
1467;SDS011;727;48.892;9.544;2022-08-03T14:27:31;1.80;;;1.70;;
1467;SDS011;727;48.892;9.544;2022-08-03T14:29:57;1.80;;;1.70;;
1467;SDS011;727;48.892;9.544;2022-08-03T14:32:25;3.17;;;2.00;;
1467;SDS011;727;48.892;9.544;2022-08-03T14:34:52;1.73;;;1.63;;
1467;SDS011;727;48.892;9.544;2022-08-03T14:37:20;3.63;;;1.73;;
1467;SDS011;727;48.892;9.544;2022-08-03T14:39:46;1.87;;;1.77;;
1467;SDS011;727;48.892;9.544;2022-08-03T14:42:13;2.57;;;1.77;;
1467;SDS011;727;48.892;9.544;2022-08-03T14:44:40;1.70;;;1.50;;
1467;SDS011;727;48.892;9.544;2022-08-03T14:47:07;1.73;;;1.60;;
1467;SDS011;727;48.892;9.544;2022-08-03T14:49:34;2.03;;;1.80;;
1467;SDS011;727;48.892;9.544;2022-08-03T14:52:00;1.70;;;1.60;;
1467;SDS011;727;48.892;9.544;2022-08-03T14:54:28;1.50;;;1.40;;
1467;SDS011;727;48.892;9.544;2022-08-03T14:56:55;1.77;;;1.67;;
1467;SDS011;727;48.892;9.544;2022-08-03T14:59:22;1.90;;;1.80;;
1467;SDS011;727;48.892;9.544;2022-08-03T15:01:49;1.80;;;1.70;;
1467;SDS011;727;48.892;9.544;2022-08-03T15:04:16;2.23;;;1.80;;
1467;SDS011;727;48.892;9.544;2022-08-03T15:06:42;2.20;;;1.80;;
1467;SDS011;727;48.892;9.544;2022-08-03T15:09:09;2.00;;;1.80;;
1467;SDS011;727;48.892;9.544;2022-08-03T15:11:37;2.40;;;1.60;;
1467;SDS011;727;48.892;9.544;2022-08-03T15:14:04;1.80;;;1.70;;
1467;SDS011;727;48.892;9.544;2022-08-03T15:16:31;2.20;;;1.93;;
1467;SDS011;727;48.892;9.544;2022-08-03T15:18:57;2.73;;;1.60;;
1467;SDS011;727;48.892;9.544;2022-08-03T15:21:24;1.90;;;1.80;;
1467;SDS011;727;48.892;9.544;2022-08-03T15:23:51;2.20;;;2.00;;
1467;SDS011;727;48.892;9.544;2022-08-03T15:26:18;1.93;;;1.73;;
1467;SDS011;727;48.892;9.544;2022-08-03T15:28:46;2.03;;;1.93;;
1467;SDS011;727;48.892;9.544;2022-08-03T15:31:12;2.10;;;1.90;;
1467;SDS011;727;48.892;9.544;2022-08-03T15:33:39;2.50;;;2.30;;
1467;SDS011;727;48.892;9.544;2022-08-03T15:36:06;1.60;;;1.50;;
1467;SDS011;727;48.892;9.544;2022-08-03T15:38:32;3.73;;;2.30;;
1467;SDS011;727;48.892;9.544;2022-08-03T15:40:59;2.80;;;1.60;;
1467;SDS011;727;48.892;9.544;2022-08-03T15:43:26;1.80;;;1.70;;
1467;SDS011;727;48.892;9.544;2022-08-03T15:45:54;2.13;;;1.90;;
1467;SDS011;727;48.892;9.544;2022-08-03T15:48:20;1.73;;;1.63;;
1467;SDS011;727;48.892;9.544;2022-08-03T15:50:49;2.10;;;2.00;;
1467;SDS011;727;48.892;9.544;2022-08-03T15:53:15;1.90;;;1.80;;
1467;SDS011;727;48.892;9.544;2022-08-03T15:55:42;2.23;;;2.03;;
1467;SDS011;727;48.892;9.544;2022-08-03T15:58:09;1.80;;;1.70;;
1467;SDS011;727;48.892;9.544;2022-08-03T16:00:35;2.40;;;2.30;;